^^
Station Historical Data
Daily Summary for January 25, 2018 Units:  Metric    English   Both
« Previous Day
Next Day »
Daily Weekly Monthly Yearly Custom
  High: Low: Average:
Temperature: -17.8 °C 17.5 °C 24.2 °C
Dew Point: -17.8 °C 4.9 °C 10.7 °C
Humidity: Humidity% 16% 47%
Wind Speed: 0km/h 0km/h 15.3km/h
Wind Gust: 0km/h - -
Wind- - SSW
Pressure: 0 hPa 1002.6 hPa -
Precipitation: 0 mm    
Historical Graphs
 
 
Tabular Data for January 25, 2018
Time Temperature Dew Point Pressure Wind Wind Speed Wind Gust Humidity Rainfall Rate (Hourly) solar Conditions
-17.8 °C -17.8 °C 0 hPa Calm     Humidity% 0 mm SolarRadiationWatts/m^2 W/m2 Conditions
00:01 21.7 °C 13.1 °C 1007.3 hPa SSW 25.9 km/h 25.9 km/h 58% 0 mm 0.0 W/m2
00:06 21.6 °C 13 °C 1007.3 hPa SSW 20.9 km/h 25.7 km/h 58% 0 mm 0.0 W/m2
00:11 21.6 °C 13 °C 1007.3 hPa South 19.5 km/h 24.1 km/h 58% 0 mm 0.0 W/m2
00:16 21.5 °C 12.9 °C 1007.3 hPa SSW 19.5 km/h 24.1 km/h 58% 0 mm 0.0 W/m2
00:26 21.3 °C 13 °C 1007.3 hPa South 14.3 km/h 22.5 km/h 59% 0 mm 0.0 W/m2
00:36 21.1 °C 13 °C 1007.3 hPa SSW 14.3 km/h 20.9 km/h 60% 0 mm 0.0 W/m2
00:41 20.9 °C 12.8 °C 1007.3 hPa SSW 13 km/h 22.5 km/h 60% 0 mm 0.0 W/m2
00:46 20.8 °C 13 °C 1007.3 hPa SSW 14.3 km/h 24.1 km/h 61% 0 mm 0.0 W/m2
00:56 20.7 °C 12.9 °C 1007.3 hPa SSW 19.5 km/h 24.1 km/h 61% 0 mm 0.0 W/m2
01:06 20.5 °C 13 °C 1007.3 hPa South 19.5 km/h 25.7 km/h 62% 0 mm 0.0 W/m2
01:11 20.4 °C 12.9 °C 1007.7 hPa SSW 24.1 km/h 24.1 km/h 62% 0 mm 0.0 W/m2
01:17 20.4 °C 12.9 °C 1007.3 hPa SSW 22.7 km/h 25.7 km/h 62% 0 mm 0.0 W/m2
01:26 20.3 °C 12.8 °C 1007.3 hPa SSW 24.1 km/h 24.1 km/h 62% 0 mm 0.0 W/m2
01:31 20.3 °C 12.8 °C 1007.3 hPa SSW 22.7 km/h 27.4 km/h 62% 0 mm 0.0 W/m2
01:36 20.2 °C 12.7 °C 1007.3 hPa SSW 22.7 km/h 25.7 km/h 62% 0 mm 0.0 W/m2
01:41 20.2 °C 12.7 °C 1007.3 hPa SSW 20.9 km/h 29 km/h 62% 0 mm 0.0 W/m2
01:46 20.2 °C 12.7 °C 1007.3 hPa SSW 14.3 km/h 30.6 km/h 62% 0 mm 0.0 W/m2
01:56 20.1 °C 12.8 °C 1007.3 hPa SSW 25.9 km/h 33.8 km/h 63% 0 mm 0.0 W/m2
02:06 19.9 °C 12.6 °C 1007.3 hPa SSW 20.9 km/h 25.7 km/h 63% 0 mm 0.0 W/m2
02:11 19.8 °C 12.8 °C 1007.3 hPa SSW 20.9 km/h 24.1 km/h 64% 0 mm 0.0 W/m2
02:17 19.6 °C 12.6 °C 1007 hPa SSW 17.7 km/h 27.4 km/h 64% 0 mm 0.0 W/m2
02:27 19.4 °C 12.7 °C 1007.3 hPa SSW 14.3 km/h 24.1 km/h 65% 0 mm 0.0 W/m2
02:37 19.4 °C 12.7 °C 1007.3 hPa South 19.5 km/h 19.5 km/h 65% 0 mm 0.0 W/m2
02:47 19.3 °C 12.6 °C 1007.3 hPa SSW 16.3 km/h 20.9 km/h 65% 0 mm 0.0 W/m2
02:57 19.1 °C 12.6 °C 1007.3 hPa SSW 14.3 km/h 17.7 km/h 66% 0 mm 0.0 W/m2
03:02 19.1 °C 12.6 °C 1007.3 hPa SSW 19.5 km/h 20.9 km/h 66% 0 mm 0.0 W/m2
03:07 19.1 °C 12.6 °C 1007.3 hPa SSW 14.3 km/h 19.3 km/h 66% 0 mm 0.0 W/m2
03:17 18.9 °C 12.6 °C 1007 hPa SSW 16.3 km/h 17.7 km/h 67% 0 mm 0.0 W/m2
03:27 18.8 °C 12.5 °C 1007.3 hPa SSW 16.3 km/h 19.3 km/h 67% 0 mm 0.0 W/m2
03:32 18.8 °C 12.5 °C 1007.3 hPa SSW 14.3 km/h 19.3 km/h 67% 0 mm 0.0 W/m2
03:42 18.7 °C 12.4 °C 1007 hPa SW 9.7 km/h 14.5 km/h 67% 0 mm 0.0 W/m2
03:47 18.6 °C 12.6 °C 1007 hPa SW 13 km/h 16.1 km/h 68% 0 mm 0.0 W/m2
03:52 18.5 °C 12.5 °C 1007 hPa SW 19.5 km/h 19.5 km/h 68% 0 mm 0.0 W/m2
04:02 18.3 °C 12.5 °C 1007 hPa SW 14.3 km/h 19.3 km/h 69% 0 mm 0.0 W/m2
04:07 18.3 °C 12.5 °C 1007 hPa SW 14.3 km/h 17.7 km/h 69% 0 mm 0.0 W/m2
04:12 18.2 °C 12.4 °C 1007 hPa SW 13 km/h 16.1 km/h 69% 0 mm 0.0 W/m2
04:17 18.1 °C 12.5 °C 1007 hPa SW 13 km/h 16.1 km/h 70% 0 mm 0.0 W/m2
04:22 18.1 °C 12.5 °C 1007 hPa SW 16.3 km/h 19.3 km/h 70% 0 mm 0.0 W/m2
04:27 18.1 °C 12.5 °C 1007 hPa SW 20.9 km/h 20.9 km/h 70% 0 mm 0.0 W/m2
04:32 18 °C 12.4 °C 1007 hPa SW 11.1 km/h 17.7 km/h 70% 0 mm 0.0 W/m2
04:37 17.9 °C 12.4 °C 1007 hPa SW 13 km/h 16.1 km/h 70% 0 mm 0.0 W/m2
04:43 17.9 °C 12.4 °C 1007 hPa SW 11.1 km/h 14.5 km/h 70% 0 mm 0.0 W/m2
04:48 17.9 °C 12.6 °C 1007 hPa SW 16.3 km/h 17.7 km/h 71% 0 mm 0.0 W/m2
04:53 17.9 °C 12.6 °C 1007 hPa SW 13 km/h 17.7 km/h 71% 0 mm 0.0 W/m2
04:58 17.9 °C 12.6 °C 1007.3 hPa SW 11.1 km/h 12.9 km/h 71% 0 mm 0.0 W/m2
05:08 17.8 °C 12.5 °C 1007.3 hPa SSW 16.3 km/h 17.7 km/h 71% 0 mm 0.0 W/m2
05:13 17.8 °C 12.5 °C 1007 hPa SSW 7.9 km/h 14.5 km/h 71% 0 mm 0.0 W/m2
05:18 17.8 °C 12.5 °C 1007.3 hPa SSW 14.3 km/h 17.7 km/h 71% 0 mm 0.0 W/m2
05:28 17.7 °C 12.4 °C 1007.3 hPa SW 13 km/h 16.1 km/h 71% 0 mm 0.0 W/m2
05:33 17.7 °C 12.4 °C 1007.3 hPa SSW 11.1 km/h 16.1 km/h 71% 0 mm 0.0 W/m2
05:38 17.7 °C 12.4 °C 1007.3 hPa SSW 16.3 km/h 16.3 km/h 71% 0 mm 0.0 W/m2
05:48 17.7 °C 12.4 °C 1007.3 hPa SSW 13 km/h 16.1 km/h 71% 0 mm 0.0 W/m2
05:58 17.6 °C 12.3 °C 1007.3 hPa SW 13 km/h 14.5 km/h 71% 0 mm 0.0 W/m2
06:09 17.6 °C 12.3 °C 1007.7 hPa SSW 14.3 km/h 14.5 km/h 71% 0 mm 0.0 W/m2
06:19 17.5 °C 12.2 °C 1007.7 hPa SSW 9.7 km/h 12.9 km/h 71% 0 mm 5.0 W/m2
06:25 17.5 °C 12.2 °C 1007.7 hPa SSW 7.9 km/h 11.3 km/h 71% 0 mm 9.0 W/m2
06:32 17.5 °C 12.2 °C 1007.7 hPa SSW 13 km/h 16.1 km/h 71% 0 mm 12.0 W/m2
07:13 18.2 °C 12.6 °C 1008.4 hPa SSW 14.3 km/h 17.7 km/h 70% 0 mm 111.0 W/m2
07:23 18.3 °C 12.5 °C 1008.4 hPa SW 11.1 km/h 14.5 km/h 69% 0 mm 153.0 W/m2
08:28 20.3 °C 12.5 °C 1008.4 hPa SW 16.3 km/h 20.9 km/h 61% 0 mm 392.0 W/m2
08:50 21.2 °C 12.6 °C 1008 hPa SW 17.7 km/h 22.5 km/h 58% 0 mm 462.0 W/m2
09:04 21.5 °C 12.6 °C 1008 hPa SW 14.3 km/h 19.3 km/h 57% 0 mm 512.0 W/m2
09:33 22.5 °C 12.7 °C 1007.7 hPa SW 14.3 km/h 19.3 km/h 54% 0 mm 608.0 W/m2
09:43 23.1 °C 12.7 °C 1007.7 hPa SW 17.7 km/h 22.5 km/h 52% 0 mm 636.0 W/m2
09:52 23.6 °C 12.6 °C 1007.7 hPa SW 16.3 km/h 24.1 km/h 50% 0 mm 668.0 W/m2
10:27 24.6 °C 12.5 °C 1007.7 hPa SW 13 km/h 20.9 km/h 47% 0 mm 768.0 W/m2
11:06 26.5 °C 12.2 °C 1007.3 hPa SW 13 km/h 22.5 km/h 41% 0 mm 847.0 W/m2
11:22 27.1 °C 12.3 °C 1007.3 hPa SW 16.3 km/h 22.5 km/h 40% 0 mm 879.0 W/m2
11:35 27.9 °C 11.9 °C 1007 hPa SW 17.7 km/h 19.3 km/h 37% 0 mm 902.0 W/m2
11:50 28.4 °C 11.5 °C 1007 hPa SW 14.3 km/h 22.5 km/h 35% 0 mm 923.0 W/m2
12:01 28.8 °C 11.4 °C 1007 hPa SW 13 km/h 19.3 km/h 34% 0 mm 937.0 W/m2
12:33 30.2 °C 10.7 °C 1006.3 hPa SW 11.1 km/h 17.7 km/h 30% 0 mm 963.0 W/m2
12:49 30.6 °C 10.5 °C 1006 hPa SW 17.7 km/h 24.1 km/h 29% 0 mm 972.0 W/m2
12:57 31.1 °C 10.4 °C 1006 hPa SW 19.5 km/h 24.1 km/h 28% 0 mm 972.0 W/m2
13:11 31.6 °C 10.3 °C 1005.6 hPa SW 13 km/h 16.1 km/h 27% 0 mm 972.0 W/m2
13:37 32.3 °C 10.3 °C 1005.6 hPa SW 22.7 km/h 24.1 km/h 26% 0 mm 963.0 W/m2
13:44 32.2 °C 9.7 °C 1005.6 hPa SW 9.7 km/h 12.9 km/h 25% 0 mm 962.0 W/m2
13:56 32 °C 9.5 °C 1005.3 hPa SW 6.4 km/h 16.1 km/h 25% 0 mm 951.0 W/m2
14:05 32.3 °C 9.8 °C 1005.3 hPa SW 4.7 km/h 12.9 km/h 25% 0 mm 940.0 W/m2
14:14 32.7 °C 9.5 °C 1005 hPa SW 1.4 km/h 11.3 km/h 24% 0 mm 930.0 W/m2
14:25 33 °C 9.1 °C 1005 hPa Calm   9.7 km/h 23% 0 mm 914.0 W/m2
14:35 32.9 °C 8.4 °C 1004.6 hPa SW 9.7 km/h 14.5 km/h 22% 0 mm 907.0 W/m2
14:45 33.2 °C 7.9 °C 1004.6 hPa SW 4.7 km/h 14.5 km/h 21% 0 mm 891.0 W/m2
14:54 33.3 °C 8 °C 1004.6 hPa Calm   1.6 km/h 21% 0 mm 865.0 W/m2
15:03 34.1 °C 8 °C 1004.6 hPa SW 11.1 km/h 14.5 km/h 20% 0 mm 846.0 W/m2
15:09 34.2 °C 8 °C 1004.6 hPa Calm   12.9 km/h 20% 0 mm 835.0 W/m2
15:14 34.1 °C 8 °C 1004.3 hPa SW 9.7 km/h 17.7 km/h 20% 0 mm 828.0 W/m2
15:21 33.9 °C 7.8 °C 1004.3 hPa SW 11.1 km/h 14.5 km/h 20% 0 mm 816.0 W/m2
15:33 34.1 °C 8 °C 1004.3 hPa Calm   11.3 km/h 20% 0 mm 793.0 W/m2
16:04 34.3 °C 6.6 °C 1003.9 hPa SW 11.1 km/h 16.1 km/h 18% 0 mm 717.0 W/m2
16:18 34.2 °C 6.5 °C 1003.6 hPa WSW 6.4 km/h 11.3 km/h 18% 0 mm 668.0 W/m2
16:29 34.6 °C 6 °C 1003.3 hPa Calm   1.6 km/h 17% 0 mm 635.0 W/m2
16:44 34.8 °C 6.1 °C 1003.3 hPa SW 13 km/h 16.1 km/h 17% 0 mm 589.0 W/m2
17:00 35 °C 6.3 °C 1002.9 hPa SSW 9.7 km/h 17.7 km/h 17% 0 mm 541.0 W/m2
17:14 34.7 °C 6.1 °C 1002.9 hPa Calm   8 km/h 17% 0 mm 489.0 W/m2
17:24 34.9 °C 6.2 °C 1002.6 hPa Calm   16.1 km/h 17% 0 mm 457.0 W/m2
17:37 34.7 °C 6.1 °C 1002.6 hPa SW 6.4 km/h 9.7 km/h 17% 0 mm 403.0 W/m2
17:46 34.9 °C 5.4 °C 1002.6 hPa SW 9.7 km/h 16.1 km/h 16% 0 mm 367.0 W/m2
17:56 34.6 °C 5.1 °C 1002.6 hPa Calm     16% 0 mm 330.0 W/m2
18:02 34.7 °C 5.2 °C 1002.6 hPa Calm     16% 0 mm 315.0 W/m2
18:15 34.4 °C 5.8 °C 1002.6 hPa SW 9.7 km/h 16.1 km/h 17% 0 mm 260.0 W/m2
18:21 34.3 °C 5.7 °C 1002.6 hPa SW 4.7 km/h 11.3 km/h 17% 0 mm 241.0 W/m2
18:32 34.2 °C 5.7 °C 1002.6 hPa Calm     17% 0 mm 195.0 W/m2
18:41 34.3 °C 4.9 °C 1002.6 hPa SW 9.7 km/h 12.9 km/h 16% 0 mm 155.0 W/m2
18:56 34.3 °C 4.9 °C 1002.6 hPa South 17.7 km/h 22.5 km/h 16% 0 mm 97.0 W/m2
19:07 34.1 °C 6.4 °C 1002.9 hPa South 17.7 km/h 20.9 km/h 18% 0 mm 62.0 W/m2
19:16 33.8 °C 7 °C 1002.6 hPa SSW 17.7 km/h 24.1 km/h 19% 0 mm 26.0 W/m2
19:33 32.6 °C 9.4 °C 1002.9 hPa SSW 22.7 km/h 30.6 km/h 24% 0 mm 12.0 W/m2
19:44 31 °C 10.9 °C 1003.3 hPa SW 25.9 km/h 33.8 km/h 29% 0 mm 7.0 W/m2
19:55 30.1 °C 11.1 °C 1003.6 hPa SSW 24.1 km/h 29 km/h 31% 0 mm 0.0 W/m2
20:02 29.4 °C 11.4 °C 1003.9 hPa SW 33.8 km/h 33.8 km/h 33% 0 mm 0.0 W/m2
20:12 28.5 °C 11.1 °C 1004.3 hPa SSW 24.1 km/h 32.2 km/h 34% 0 mm 0.0 W/m2
20:28 27.8 °C 11.4 °C 1004.6 hPa SW 19.5 km/h 30.6 km/h 36% 0 mm 0.0 W/m2
21:06 25.9 °C 11.6 °C 1005 hPa SSW 14.3 km/h 32.2 km/h 41% 0 mm 0.0 W/m2
21:17 25.4 °C 11.6 °C 1005.3 hPa SSW 20.9 km/h 32.2 km/h 42% 0 mm 0.0 W/m2
21:30 24.9 °C 11.5 °C 1005.6 hPa SW 20.9 km/h 32.2 km/h 43% 0 mm 0.0 W/m2
21:37 24.6 °C 11.5 °C 1005.6 hPa SW 20.9 km/h 27.4 km/h 44% 0 mm 0.0 W/m2
21:47 24.3 °C 11.3 °C 1005.6 hPa SSW 17.7 km/h 29 km/h 44% 0 mm 0.0 W/m2
21:52 24.2 °C 11.2 °C 1005.6 hPa SSW 25.9 km/h 27.4 km/h 44% 0 mm 0.0 W/m2
21:58 24.1 °C 11.4 °C 1005.6 hPa SSW 25.9 km/h 29 km/h 45% 0 mm 0.0 W/m2
22:07 23.8 °C 11.2 °C 1006 hPa SW 22.7 km/h 30.6 km/h 45% 0 mm 0.0 W/m2
22:12 23.6 °C 11 °C 1006 hPa SW 17.7 km/h 29 km/h 45% 0 mm 0.0 W/m2
22:17 23.5 °C 11.2 °C 1006 hPa SSW 25.9 km/h 29 km/h 46% 0 mm 0.0 W/m2
22:22 23.4 °C 11.1 °C 1006.3 hPa SSW 24.1 km/h 30.6 km/h 46% 0 mm 0.0 W/m2
22:27 23.2 °C 11.3 °C 1006.3 hPa SW 17.7 km/h 27.4 km/h 47% 0 mm 0.0 W/m2
22:37 22.9 °C 11.3 °C 1006.3 hPa SSW 27.4 km/h 29 km/h 48% 0 mm 0.0 W/m2
22:47 22.7 °C 11.4 °C 1006.3 hPa SSW 22.7 km/h 24.1 km/h 49% 0 mm 0.0 W/m2
22:52 22.7 °C 11.4 °C 1006.7 hPa SW 16.3 km/h 27.4 km/h 49% 0 mm 0.0 W/m2
22:57 22.6 °C 11.3 °C 1006.7 hPa SSW 17.7 km/h 27.4 km/h 49% 0 mm 0.0 W/m2
23:02 22.6 °C 11.3 °C 1006.7 hPa SSW 24.1 km/h 27.4 km/h 49% 0 mm 0.0 W/m2
23:07 22.5 °C 10.9 °C 1006.7 hPa SSW 20.9 km/h 27.4 km/h 48% 0 mm 0.0 W/m2
23:12 22.4 °C 10.8 °C 1007 hPa SSW 22.7 km/h 27.4 km/h 48% 0 mm 0.0 W/m2
23:22 22.3 °C 10.8 °C 1007 hPa SW 22.7 km/h 25.7 km/h 48% 0 mm 0.0 W/m2
23:27 22.1 °C 10.9 °C 1007 hPa SW 22.7 km/h 30.6 km/h 49% 0 mm 0.0 W/m2
23:37 21.7 °C 10.8 °C 1007 hPa SSW 24.1 km/h 30.6 km/h 50% 0 mm 0.0 W/m2
23:42 21.6 °C 10.7 °C 1007 hPa SW 25.9 km/h 32.2 km/h 50% 0 mm 0.0 W/m2
23:47 21.5 °C 10.9 °C 1007 hPa SSW 22.7 km/h 29 km/h 51% 0 mm 0.0 W/m2
23:52 21.4 °C 10.8 °C 1007 hPa SSW 22.7 km/h 29 km/h 51% 0 mm 0.0 W/m2
23:57 21.3 °C 11 °C 1007 hPa SSW 28.8 km/h 29 km/h 52% 0 mm 0.0 W/m2
Canyon Roadhouse, Fishriver Canyon, Namibia
Compliments of Weather Underground - 2.25 mb